sensor_id;sensor_type;location;lat;lon;timestamp;temperature;humidity
54260;DHT22;40172;53.022;7.012;2022-12-11T00:00:07;-1.80;99.90
54260;DHT22;40172;53.022;7.012;2022-12-11T00:02:33;-1.60;99.90
54260;DHT22;40172;53.022;7.012;2022-12-11T00:04:58;-1.30;99.90
54260;DHT22;40172;53.022;7.012;2022-12-11T00:07:24;-1.70;99.90
54260;DHT22;40172;53.022;7.012;2022-12-11T00:09:49;-1.70;99.90
54260;DHT22;40172;53.022;7.012;2022-12-11T00:12:15;-1.60;99.90
54260;DHT22;40172;53.022;7.012;2022-12-11T00:14:40;-1.80;99.90
54260;DHT22;40172;53.022;7.012;2022-12-11T00:17:06;-1.80;99.90
54260;DHT22;40172;53.022;7.012;2022-12-11T00:19:32;-1.80;99.90
54260;DHT22;40172;53.022;7.012;2022-12-11T00:21:57;-1.30;99.90
54260;DHT22;40172;53.022;7.012;2022-12-11T00:24:23;-1.80;99.90
54260;DHT22;40172;53.022;7.012;2022-12-11T00:26:48;-1.80;99.90
54260;DHT22;40172;53.022;7.012;2022-12-11T00:29:14;-1.50;99.90
54260;DHT22;40172;53.022;7.012;2022-12-11T00:31:40;-1.70;99.90
54260;DHT22;40172;53.022;7.012;2022-12-11T00:34:07;-1.70;99.90
54260;DHT22;40172;53.022;7.012;2022-12-11T00:36:32;-1.80;99.90
54260;DHT22;40172;53.022;7.012;2022-12-11T00:38:58;-1.70;99.90
54260;DHT22;40172;53.022;7.012;2022-12-11T00:41:25;-1.30;99.90
54260;DHT22;40172;53.022;7.012;2022-12-11T00:43:51;-1.60;99.90
54260;DHT22;40172;53.022;7.012;2022-12-11T00:46:16;-1.60;99.90
54260;DHT22;40172;53.022;7.012;2022-12-11T00:48:42;-1.60;99.90
54260;DHT22;40172;53.022;7.012;2022-12-11T00:51:08;-1.60;99.90
54260;DHT22;40172;53.022;7.012;2022-12-11T00:53:34;-1.60;99.90
54260;DHT22;40172;53.022;7.012;2022-12-11T00:56:00;-1.30;99.90
54260;DHT22;40172;53.022;7.012;2022-12-11T00:58:26;-1.60;99.90
54260;DHT22;40172;53.022;7.012;2022-12-11T01:00:51;-1.50;99.90
54260;DHT22;40172;53.022;7.012;2022-12-11T01:03:18;-1.50;99.90
54260;DHT22;40172;53.022;7.012;2022-12-11T01:05:54;-1.40;99.90
54260;DHT22;40172;53.022;7.012;2022-12-11T01:08:20;-1.40;99.90
54260;DHT22;40172;53.022;7.012;2022-12-11T01:10:45;-1.60;99.90
54260;DHT22;40172;53.022;7.012;2022-12-11T01:13:11;-1.40;99.90
54260;DHT22;40172;53.022;7.012;2022-12-11T01:15:42;-1.20;99.90
54260;DHT22;40172;53.022;7.012;2022-12-11T01:18:10;-1.50;99.90
54260;DHT22;40172;53.022;7.012;2022-12-11T01:20:37;-1.40;99.90
54260;DHT22;40172;53.022;7.012;2022-12-11T01:23:04;-1.30;99.90
54260;DHT22;40172;53.022;7.012;2022-12-11T01:25:29;-1.40;99.90
54260;DHT22;40172;53.022;7.012;2022-12-11T01:27:56;-1.40;99.90
54260;DHT22;40172;53.022;7.012;2022-12-11T01:30:23;-1.40;99.90
54260;DHT22;40172;53.022;7.012;2022-12-11T01:32:49;-1.40;99.90
54260;DHT22;40172;53.022;7.012;2022-12-11T01:35:16;-1.30;99.90
54260;DHT22;40172;53.022;7.012;2022-12-11T01:37:42;-1.20;99.90
54260;DHT22;40172;53.022;7.012;2022-12-11T01:40:08;-1.20;99.90
54260;DHT22;40172;53.022;7.012;2022-12-11T01:42:34;-1.20;99.90
54260;DHT22;40172;53.022;7.012;2022-12-11T01:47:44;-1.20;99.90
54260;DHT22;40172;53.022;7.012;2022-12-11T01:50:10;-1.40;99.90
54260;DHT22;40172;53.022;7.012;2022-12-11T01:52:36;-1.20;99.90
54260;DHT22;40172;53.022;7.012;2022-12-11T01:55:01;-1.20;99.90
54260;DHT22;40172;53.022;7.012;2022-12-11T01:57:27;-1.20;99.90
54260;DHT22;40172;53.022;7.012;2022-12-11T01:59:54;-1.20;99.90
54260;DHT22;40172;53.022;7.012;2022-12-11T02:02:28;-1.20;99.90
54260;DHT22;40172;53.022;7.012;2022-12-11T02:04:54;-1.10;99.90
54260;DHT22;40172;53.022;7.012;2022-12-11T02:07:20;-1.20;99.90
54260;DHT22;40172;53.022;7.012;2022-12-11T02:09:46;-0.80;99.90
54260;DHT22;40172;53.022;7.012;2022-12-11T02:12:34;-1.10;99.90
54260;DHT22;40172;53.022;7.012;2022-12-11T02:15:31;-1.10;99.90
54260;DHT22;40172;53.022;7.012;2022-12-11T02:18:10;-1.20;99.90
54260;DHT22;40172;53.022;7.012;2022-12-11T02:20:53;-1.20;99.90
54260;DHT22;40172;53.022;7.012;2022-12-11T02:28:46;-1.10;99.90
54260;DHT22;40172;53.022;7.012;2022-12-11T02:31:47;-1.10;99.90
54260;DHT22;40172;53.022;7.012;2022-12-11T02:36:56;-1.10;99.90
54260;DHT22;40172;53.022;7.012;2022-12-11T02:39:25;-1.10;99.90
54260;DHT22;40172;53.022;7.012;2022-12-11T02:41:52;-1.10;99.90
54260;DHT22;40172;53.022;7.012;2022-12-11T02:44:24;-1.00;99.90
54260;DHT22;40172;53.022;7.012;2022-12-11T02:46:52;-1.00;99.90
54260;DHT22;40172;53.022;7.012;2022-12-11T02:49:19;-1.00;99.90
54260;DHT22;40172;53.022;7.012;2022-12-11T02:51:45;-1.00;99.90
54260;DHT22;40172;53.022;7.012;2022-12-11T02:54:15;-1.00;99.90
54260;DHT22;40172;53.022;7.012;2022-12-11T02:57:11;-1.00;99.90
54260;DHT22;40172;53.022;7.012;2022-12-11T02:59:40;-1.00;99.90
54260;DHT22;40172;53.022;7.012;2022-12-11T03:02:07;-0.80;99.90
54260;DHT22;40172;53.022;7.012;2022-12-11T03:04:34;-1.10;99.90
54260;DHT22;40172;53.022;7.012;2022-12-11T03:07:14;-1.00;99.90
54260;DHT22;40172;53.022;7.012;2022-12-11T03:09:43;-1.00;99.90
54260;DHT22;40172;53.022;7.012;2022-12-11T03:12:11;-1.00;99.90
54260;DHT22;40172;53.022;7.012;2022-12-11T03:14:40;-0.60;99.90
54260;DHT22;40172;53.022;7.012;2022-12-11T03:19:59;-1.00;99.90
54260;DHT22;40172;53.022;7.012;2022-12-11T03:22:42;-1.20;99.90
54260;DHT22;40172;53.022;7.012;2022-12-11T03:25:14;-0.90;99.90
54260;DHT22;40172;53.022;7.012;2022-12-11T03:27:49;-0.60;99.90
54260;DHT22;40172;53.022;7.012;2022-12-11T03:30:19;-0.80;99.90
54260;DHT22;40172;53.022;7.012;2022-12-11T03:32:50;-0.70;99.90
54260;DHT22;40172;53.022;7.012;2022-12-11T03:38:34;-0.80;99.90
54260;DHT22;40172;53.022;7.012;2022-12-11T03:41:02;-0.60;99.90
54260;DHT22;40172;53.022;7.012;2022-12-11T03:43:30;-0.70;99.90
54260;DHT22;40172;53.022;7.012;2022-12-11T03:45:57;-0.90;99.90
54260;DHT22;40172;53.022;7.012;2022-12-11T03:48:27;-0.70;99.90
54260;DHT22;40172;53.022;7.012;2022-12-11T03:50:54;-0.70;99.90
54260;DHT22;40172;53.022;7.012;2022-12-11T03:53:20;-0.90;99.90
54260;DHT22;40172;53.022;7.012;2022-12-11T03:55:48;-0.80;99.90
54260;DHT22;40172;53.022;7.012;2022-12-11T03:58:14;-0.50;99.90
54260;DHT22;40172;53.022;7.012;2022-12-11T04:00:39;-0.70;99.90
54260;DHT22;40172;53.022;7.012;2022-12-11T04:03:05;-0.70;99.90
54260;DHT22;40172;53.022;7.012;2022-12-11T04:05:54;-0.70;99.90
54260;DHT22;40172;53.022;7.012;2022-12-11T04:08:21;-0.80;99.90
54260;DHT22;40172;53.022;7.012;2022-12-11T04:10:47;-0.80;99.90
54260;DHT22;40172;53.022;7.012;2022-12-11T04:13:13;-0.70;99.90
54260;DHT22;40172;53.022;7.012;2022-12-11T04:15:39;-0.70;99.90
54260;DHT22;40172;53.022;7.012;2022-12-11T04:18:06;-0.70;99.90
54260;DHT22;40172;53.022;7.012;2022-12-11T04:20:54;-0.90;99.90
54260;DHT22;40172;53.022;7.012;2022-12-11T04:23:38;-1.10;99.90
54260;DHT22;40172;53.022;7.012;2022-12-11T04:26:22;-0.70;99.90
54260;DHT22;40172;53.022;7.012;2022-12-11T04:28:48;-0.80;99.90
54260;DHT22;40172;53.022;7.012;2022-12-11T04:31:16;-0.80;99.90
54260;DHT22;40172;53.022;7.012;2022-12-11T04:33:42;-0.80;99.90
54260;DHT22;40172;53.022;7.012;2022-12-11T04:36:09;-0.80;99.90
54260;DHT22;40172;53.022;7.012;2022-12-11T04:38:35;-0.70;99.90
54260;DHT22;40172;53.022;7.012;2022-12-11T04:41:03;-0.60;99.90
54260;DHT22;40172;53.022;7.012;2022-12-11T04:43:29;-0.70;99.90
54260;DHT22;40172;53.022;7.012;2022-12-11T04:46:04;-0.80;99.90
54260;DHT22;40172;53.022;7.012;2022-12-11T04:48:30;-0.60;99.90
54260;DHT22;40172;53.022;7.012;2022-12-11T04:50:56;-0.70;99.90
54260;DHT22;40172;53.022;7.012;2022-12-11T04:53:22;-0.70;99.90
54260;DHT22;40172;53.022;7.012;2022-12-11T04:55:48;-0.70;99.90
54260;DHT22;40172;53.022;7.012;2022-12-11T04:58:13;-0.70;99.90
54260;DHT22;40172;53.022;7.012;2022-12-11T05:00:40;-0.80;99.90
54260;DHT22;40172;53.022;7.012;2022-12-11T05:03:05;-0.70;99.90
54260;DHT22;40172;53.022;7.012;2022-12-11T05:05:31;-0.60;99.90
54260;DHT22;40172;53.022;7.012;2022-12-11T05:07:56;-0.40;99.90
54260;DHT22;40172;53.022;7.012;2022-12-11T05:10:22;-0.70;99.90
54260;DHT22;40172;53.022;7.012;2022-12-11T05:12:48;-0.80;99.90
54260;DHT22;40172;53.022;7.012;2022-12-11T05:15:13;-0.70;99.90
54260;DHT22;40172;53.022;7.012;2022-12-11T05:17:39;-0.70;99.90
54260;DHT22;40172;53.022;7.012;2022-12-11T05:20:05;-0.70;99.90
54260;DHT22;40172;53.022;7.012;2022-12-11T05:22:31;-0.60;99.90
54260;DHT22;40172;53.022;7.012;2022-12-11T05:24:56;-0.70;99.90
54260;DHT22;40172;53.022;7.012;2022-12-11T05:27:22;-0.60;99.90
54260;DHT22;40172;53.022;7.012;2022-12-11T05:29:48;-0.70;99.90
54260;DHT22;40172;53.022;7.012;2022-12-11T05:32:13;-0.70;99.90
54260;DHT22;40172;53.022;7.012;2022-12-11T05:34:39;-0.80;99.90
54260;DHT22;40172;53.022;7.012;2022-12-11T05:37:04;-0.60;99.90
54260;DHT22;40172;53.022;7.012;2022-12-11T05:39:30;-0.70;99.90
54260;DHT22;40172;53.022;7.012;2022-12-11T05:41:56;-0.60;99.90
54260;DHT22;40172;53.022;7.012;2022-12-11T05:44:21;-0.60;99.90
54260;DHT22;40172;53.022;7.012;2022-12-11T05:46:47;-0.60;99.90
54260;DHT22;40172;53.022;7.012;2022-12-11T05:49:14;-0.60;99.90
54260;DHT22;40172;53.022;7.012;2022-12-11T05:51:40;-0.30;99.90
54260;DHT22;40172;53.022;7.012;2022-12-11T05:54:06;-0.70;99.90
54260;DHT22;40172;53.022;7.012;2022-12-11T05:56:33;-0.30;99.90
54260;DHT22;40172;53.022;7.012;2022-12-11T05:59:00;-0.70;99.90
54260;DHT22;40172;53.022;7.012;2022-12-11T06:01:32;-0.60;99.90
54260;DHT22;40172;53.022;7.012;2022-12-11T06:03:58;-0.60;99.90
54260;DHT22;40172;53.022;7.012;2022-12-11T06:06:25;-0.60;99.90
54260;DHT22;40172;53.022;7.012;2022-12-11T06:08:55;-0.60;99.90
54260;DHT22;40172;53.022;7.012;2022-12-11T06:11:23;-0.60;99.90
54260;DHT22;40172;53.022;7.012;2022-12-11T06:13:49;-0.40;99.90
54260;DHT22;40172;53.022;7.012;2022-12-11T06:16:15;-0.70;99.90
54260;DHT22;40172;53.022;7.012;2022-12-11T06:18:43;-0.60;99.90
54260;DHT22;40172;53.022;7.012;2022-12-11T06:21:14;-0.50;99.90
54260;DHT22;40172;53.022;7.012;2022-12-11T06:23:44;-0.70;99.90
54260;DHT22;40172;53.022;7.012;2022-12-11T06:26:10;-0.60;99.90
54260;DHT22;40172;53.022;7.012;2022-12-11T06:28:36;-0.60;99.90
54260;DHT22;40172;53.022;7.012;2022-12-11T06:31:02;-0.60;99.90
54260;DHT22;40172;53.022;7.012;2022-12-11T06:33:29;-0.70;99.90
54260;DHT22;40172;53.022;7.012;2022-12-11T06:35:55;-0.70;99.90
54260;DHT22;40172;53.022;7.012;2022-12-11T06:38:21;-0.60;99.90
54260;DHT22;40172;53.022;7.012;2022-12-11T06:40:54;-0.70;99.90
54260;DHT22;40172;53.022;7.012;2022-12-11T06:43:20;-0.20;99.90
54260;DHT22;40172;53.022;7.012;2022-12-11T06:45:46;-0.20;99.90
54260;DHT22;40172;53.022;7.012;2022-12-11T06:48:12;-0.60;99.90
54260;DHT22;40172;53.022;7.012;2022-12-11T06:50:38;-0.60;99.90
54260;DHT22;40172;53.022;7.012;2022-12-11T06:53:03;-0.60;99.90
54260;DHT22;40172;53.022;7.012;2022-12-11T06:55:29;-0.60;99.90
54260;DHT22;40172;53.022;7.012;2022-12-11T06:57:54;-0.60;99.90
54260;DHT22;40172;53.022;7.012;2022-12-11T07:00:20;-0.60;99.90
54260;DHT22;40172;53.022;7.012;2022-12-11T07:02:46;-0.70;99.90
54260;DHT22;40172;53.022;7.012;2022-12-11T07:05:11;-0.60;99.90
54260;DHT22;40172;53.022;7.012;2022-12-11T07:07:37;-0.70;99.90
54260;DHT22;40172;53.022;7.012;2022-12-11T07:10:03;-0.60;99.90
54260;DHT22;40172;53.022;7.012;2022-12-11T07:12:29;-0.50;99.90
54260;DHT22;40172;53.022;7.012;2022-12-11T07:14:54;-0.50;99.90
54260;DHT22;40172;53.022;7.012;2022-12-11T07:17:20;-0.60;99.90
54260;DHT22;40172;53.022;7.012;2022-12-11T07:19:45;-0.60;99.90
54260;DHT22;40172;53.022;7.012;2022-12-11T07:22:11;-0.60;99.90
54260;DHT22;40172;53.022;7.012;2022-12-11T07:24:36;-0.60;99.90
54260;DHT22;40172;53.022;7.012;2022-12-11T07:27:03;-0.70;99.90
54260;DHT22;40172;53.022;7.012;2022-12-11T07:29:29;-0.60;99.90
54260;DHT22;40172;53.022;7.012;2022-12-11T07:31:54;-0.60;99.90
54260;DHT22;40172;53.022;7.012;2022-12-11T07:34:20;-0.60;99.90
54260;DHT22;40172;53.022;7.012;2022-12-11T07:36:45;-0.60;99.90
54260;DHT22;40172;53.022;7.012;2022-12-11T07:39:11;-0.60;99.90
54260;DHT22;40172;53.022;7.012;2022-12-11T07:41:37;-0.40;99.90
54260;DHT22;40172;53.022;7.012;2022-12-11T07:44:03;-0.60;99.90
54260;DHT22;40172;53.022;7.012;2022-12-11T07:46:30;-0.50;99.90
54260;DHT22;40172;53.022;7.012;2022-12-11T07:48:56;-0.40;99.90
54260;DHT22;40172;53.022;7.012;2022-12-11T07:51:25;-0.50;99.90
54260;DHT22;40172;53.022;7.012;2022-12-11T07:53:56;-0.50;99.90
54260;DHT22;40172;53.022;7.012;2022-12-11T07:56:22;-0.40;99.90
54260;DHT22;40172;53.022;7.012;2022-12-11T07:58:48;-0.60;99.90
54260;DHT22;40172;53.022;7.012;2022-12-11T08:01:25;-0.50;99.90
54260;DHT22;40172;53.022;7.012;2022-12-11T08:03:51;-0.50;99.90
54260;DHT22;40172;53.022;7.012;2022-12-11T08:06:18;-0.50;99.90
54260;DHT22;40172;53.022;7.012;2022-12-11T08:08:45;-0.60;99.90
54260;DHT22;40172;53.022;7.012;2022-12-11T08:11:12;-0.50;99.90
54260;DHT22;40172;53.022;7.012;2022-12-11T08:13:39;-0.50;99.90
54260;DHT22;40172;53.022;7.012;2022-12-11T08:16:06;-0.50;99.90
54260;DHT22;40172;53.022;7.012;2022-12-11T08:18:35;-0.40;99.90
54260;DHT22;40172;53.022;7.012;2022-12-11T08:21:08;-0.50;99.90
54260;DHT22;40172;53.022;7.012;2022-12-11T08:23:34;-0.50;99.90
54260;DHT22;40172;53.022;7.012;2022-12-11T08:26:04;-0.40;99.90
54260;DHT22;40172;53.022;7.012;2022-12-11T08:28:31;-0.50;99.90
54260;DHT22;40172;53.022;7.012;2022-12-11T08:30:57;-0.30;99.90
54260;DHT22;40172;53.022;7.012;2022-12-11T08:33:23;-0.40;99.90
54260;DHT22;40172;53.022;7.012;2022-12-11T08:35:48;-0.30;99.90
54260;DHT22;40172;53.022;7.012;2022-12-11T08:38:14;-0.40;99.90
54260;DHT22;40172;53.022;7.012;2022-12-11T08:40:40;-0.40;99.90
54260;DHT22;40172;53.022;7.012;2022-12-11T08:43:05;-0.50;99.90
54260;DHT22;40172;53.022;7.012;2022-12-11T08:45:31;-0.40;99.90
54260;DHT22;40172;53.022;7.012;2022-12-11T08:48:00;-0.40;99.90
54260;DHT22;40172;53.022;7.012;2022-12-11T08:50:25;-0.10;99.90
54260;DHT22;40172;53.022;7.012;2022-12-11T08:52:51;-0.30;99.90
54260;DHT22;40172;53.022;7.012;2022-12-11T08:55:18;-0.30;99.90
54260;DHT22;40172;53.022;7.012;2022-12-11T08:57:44;-0.40;99.90
54260;DHT22;40172;53.022;7.012;2022-12-11T09:00:11;-0.40;99.90
54260;DHT22;40172;53.022;7.012;2022-12-11T09:02:37;-0.30;99.90
54260;DHT22;40172;53.022;7.012;2022-12-11T09:05:03;-0.40;99.90
54260;DHT22;40172;53.022;7.012;2022-12-11T09:07:32;-0.40;99.90
54260;DHT22;40172;53.022;7.012;2022-12-11T09:09:58;-0.40;99.90
54260;DHT22;40172;53.022;7.012;2022-12-11T09:12:24;-0.30;99.90
54260;DHT22;40172;53.022;7.012;2022-12-11T09:14:49;-0.10;99.90
54260;DHT22;40172;53.022;7.012;2022-12-11T09:17:15;-0.30;99.90
54260;DHT22;40172;53.022;7.012;2022-12-11T09:19:40;0.10;99.90
54260;DHT22;40172;53.022;7.012;2022-12-11T09:22:06;-0.40;99.90
54260;DHT22;40172;53.022;7.012;2022-12-11T09:24:34;-0.30;99.90
54260;DHT22;40172;53.022;7.012;2022-12-11T09:27:00;-0.30;99.90
54260;DHT22;40172;53.022;7.012;2022-12-11T09:29:26;-0.30;99.90
54260;DHT22;40172;53.022;7.012;2022-12-11T09:31:51;-0.40;99.90
54260;DHT22;40172;53.022;7.012;2022-12-11T09:34:17;-0.20;99.90
54260;DHT22;40172;53.022;7.012;2022-12-11T09:36:42;-0.20;99.90
54260;DHT22;40172;53.022;7.012;2022-12-11T09:39:10;-0.20;99.90
54260;DHT22;40172;53.022;7.012;2022-12-11T09:44:32;-0.20;99.90
54260;DHT22;40172;53.022;7.012;2022-12-11T09:46:59;-0.20;99.90
54260;DHT22;40172;53.022;7.012;2022-12-11T09:49:38;-0.20;99.90
54260;DHT22;40172;53.022;7.012;2022-12-11T09:55:02;0.00;99.90
54260;DHT22;40172;53.022;7.012;2022-12-11T09:57:44;0.00;99.90
54260;DHT22;40172;53.022;7.012;2022-12-11T10:00:22;0.00;99.90
54260;DHT22;40172;53.022;7.012;2022-12-11T10:03:16;-0.10;99.90
54260;DHT22;40172;53.022;7.012;2022-12-11T10:06:11;-0.10;99.90
54260;DHT22;40172;53.022;7.012;2022-12-11T10:08:59;0.00;99.90
54260;DHT22;40172;53.022;7.012;2022-12-11T10:14:34;0.00;99.90
54260;DHT22;40172;53.022;7.012;2022-12-11T10:19:34;0.00;99.90
54260;DHT22;40172;53.022;7.012;2022-12-11T10:22:01;0.00;99.90
54260;DHT22;40172;53.022;7.012;2022-12-11T10:24:53;-0.30;99.90
54260;DHT22;40172;53.022;7.012;2022-12-11T10:27:23;0.40;99.90
54260;DHT22;40172;53.022;7.012;2022-12-11T10:30:01;0.10;99.90
54260;DHT22;40172;53.022;7.012;2022-12-11T10:35:32;0.10;99.90
54260;DHT22;40172;53.022;7.012;2022-12-11T10:40:50;0.20;99.90
54260;DHT22;40172;53.022;7.012;2022-12-11T10:43:16;0.50;99.90
54260;DHT22;40172;53.022;7.012;2022-12-11T10:45:53;0.20;99.90
54260;DHT22;40172;53.022;7.012;2022-12-11T10:48:19;0.10;99.90
54260;DHT22;40172;53.022;7.012;2022-12-11T10:51:01;0.20;99.90
54260;DHT22;40172;53.022;7.012;2022-12-11T10:53:27;0.10;99.90
54260;DHT22;40172;53.022;7.012;2022-12-11T10:55:53;0.20;99.90
54260;DHT22;40172;53.022;7.012;2022-12-11T10:58:22;-0.10;99.90
54260;DHT22;40172;53.022;7.012;2022-12-11T11:03:27;0.00;99.90
54260;DHT22;40172;53.022;7.012;2022-12-11T11:06:16;0.10;99.90
54260;DHT22;40172;53.022;7.012;2022-12-11T11:08:44;0.20;99.90
54260;DHT22;40172;53.022;7.012;2022-12-11T11:13:48;0.10;99.90
54260;DHT22;40172;53.022;7.012;2022-12-11T11:16:17;0.10;99.90
54260;DHT22;40172;53.022;7.012;2022-12-11T11:18:53;0.10;99.90
54260;DHT22;40172;53.022;7.012;2022-12-11T11:21:21;0.20;99.90
54260;DHT22;40172;53.022;7.012;2022-12-11T11:23:48;0.50;99.90
54260;DHT22;40172;53.022;7.012;2022-12-11T11:26:14;0.20;99.90
54260;DHT22;40172;53.022;7.012;2022-12-11T11:28:46;0.10;99.90
54260;DHT22;40172;53.022;7.012;2022-12-11T11:31:14;0.20;99.90
54260;DHT22;40172;53.022;7.012;2022-12-11T11:33:57;0.30;99.90
54260;DHT22;40172;53.022;7.012;2022-12-11T11:36:26;0.10;99.90
54260;DHT22;40172;53.022;7.012;2022-12-11T11:41:34;0.10;99.90
54260;DHT22;40172;53.022;7.012;2022-12-11T11:44:04;0.50;99.90
54260;DHT22;40172;53.022;7.012;2022-12-11T11:46:41;0.20;99.90
54260;DHT22;40172;53.022;7.012;2022-12-11T11:49:20;0.10;99.90
54260;DHT22;40172;53.022;7.012;2022-12-11T11:52:10;0.30;99.90
54260;DHT22;40172;53.022;7.012;2022-12-11T11:54:40;0.20;99.90
54260;DHT22;40172;53.022;7.012;2022-12-11T11:57:21;0.10;99.90
54260;DHT22;40172;53.022;7.012;2022-12-11T11:59:53;0.20;99.90
54260;DHT22;40172;53.022;7.012;2022-12-11T12:02:20;0.20;99.90
54260;DHT22;40172;53.022;7.012;2022-12-11T12:04:46;0.20;99.90
54260;DHT22;40172;53.022;7.012;2022-12-11T12:10:33;0.20;99.90
54260;DHT22;40172;53.022;7.012;2022-12-11T12:13:12;0.20;99.90
54260;DHT22;40172;53.022;7.012;2022-12-11T12:15:53;0.20;99.90
54260;DHT22;40172;53.022;7.012;2022-12-11T12:18:34;0.20;99.90
54260;DHT22;40172;53.022;7.012;2022-12-11T12:21:26;0.20;99.90
54260;DHT22;40172;53.022;7.012;2022-12-11T12:26:39;0.10;99.90
54260;DHT22;40172;53.022;7.012;2022-12-11T12:29:33;0.20;99.90
54260;DHT22;40172;53.022;7.012;2022-12-11T12:32:25;0.20;99.90
54260;DHT22;40172;53.022;7.012;2022-12-11T12:35:05;0.30;99.90
54260;DHT22;40172;53.022;7.012;2022-12-11T12:37:55;0.20;99.90
54260;DHT22;40172;53.022;7.012;2022-12-11T12:40:25;0.20;99.90
54260;DHT22;40172;53.022;7.012;2022-12-11T12:45:51;0.20;99.90
54260;DHT22;40172;53.022;7.012;2022-12-11T12:48:18;0.20;99.90
54260;DHT22;40172;53.022;7.012;2022-12-11T12:50:47;0.10;99.90
54260;DHT22;40172;53.022;7.012;2022-12-11T12:53:20;0.30;99.90
54260;DHT22;40172;53.022;7.012;2022-12-11T12:55:47;0.20;99.90
54260;DHT22;40172;53.022;7.012;2022-12-11T13:01:07;0.40;99.90
54260;DHT22;40172;53.022;7.012;2022-12-11T13:03:47;0.30;99.90
54260;DHT22;40172;53.022;7.012;2022-12-11T13:06:13;0.30;99.90
54260;DHT22;40172;53.022;7.012;2022-12-11T13:08:40;0.30;99.90
54260;DHT22;40172;53.022;7.012;2022-12-11T13:11:09;0.60;99.90
54260;DHT22;40172;53.022;7.012;2022-12-11T13:13:47;0.30;99.90
54260;DHT22;40172;53.022;7.012;2022-12-11T13:18:44;0.30;99.90
54260;DHT22;40172;53.022;7.012;2022-12-11T13:21:32;0.30;99.90
54260;DHT22;40172;53.022;7.012;2022-12-11T13:26:45;0.20;99.90
54260;DHT22;40172;53.022;7.012;2022-12-11T13:29:30;0.30;99.90
54260;DHT22;40172;53.022;7.012;2022-12-11T13:32:04;0.20;99.90
54260;DHT22;40172;53.022;7.012;2022-12-11T13:34:32;0.20;99.90
54260;DHT22;40172;53.022;7.012;2022-12-11T13:36:58;0.30;99.90
54260;DHT22;40172;53.022;7.012;2022-12-11T13:39:28;0.20;99.90
54260;DHT22;40172;53.022;7.012;2022-12-11T13:41:58;0.20;99.90
54260;DHT22;40172;53.022;7.012;2022-12-11T13:44:35;0.30;99.90
54260;DHT22;40172;53.022;7.012;2022-12-11T13:47:05;0.30;99.90
54260;DHT22;40172;53.022;7.012;2022-12-11T13:49:37;0.30;99.90
54260;DHT22;40172;53.022;7.012;2022-12-11T13:52:05;0.20;99.90
54260;DHT22;40172;53.022;7.012;2022-12-11T13:54:33;0.30;99.90
54260;DHT22;40172;53.022;7.012;2022-12-11T13:59:37;0.30;99.90
54260;DHT22;40172;53.022;7.012;2022-12-11T14:02:26;0.20;99.90
54260;DHT22;40172;53.022;7.012;2022-12-11T14:05:02;0.20;99.90
54260;DHT22;40172;53.022;7.012;2022-12-11T14:07:31;0.50;99.90
54260;DHT22;40172;53.022;7.012;2022-12-11T14:10:06;0.20;99.90
54260;DHT22;40172;53.022;7.012;2022-12-11T14:12:34;0.90;99.90
54260;DHT22;40172;53.022;7.012;2022-12-11T14:15:02;0.20;99.90
54260;DHT22;40172;53.022;7.012;2022-12-11T14:17:33;0.20;99.90
54260;DHT22;40172;53.022;7.012;2022-12-11T14:20:02;0.30;99.90
54260;DHT22;40172;53.022;7.012;2022-12-11T14:22:31;0.20;99.90
54260;DHT22;40172;53.022;7.012;2022-12-11T14:24:59;0.60;99.90
54260;DHT22;40172;53.022;7.012;2022-12-11T14:27:28;0.20;99.90
54260;DHT22;40172;53.022;7.012;2022-12-11T14:29:54;0.20;99.90
54260;DHT22;40172;53.022;7.012;2022-12-11T14:32:31;0.10;99.90
54260;DHT22;40172;53.022;7.012;2022-12-11T14:34:57;0.20;99.90
54260;DHT22;40172;53.022;7.012;2022-12-11T14:37:25;0.00;99.90
54260;DHT22;40172;53.022;7.012;2022-12-11T14:39:58;0.20;99.90
54260;DHT22;40172;53.022;7.012;2022-12-11T14:42:39;0.10;99.90
54260;DHT22;40172;53.022;7.012;2022-12-11T14:47:44;0.10;99.90
54260;DHT22;40172;53.022;7.012;2022-12-11T14:50:13;0.10;99.90
54260;DHT22;40172;53.022;7.012;2022-12-11T14:52:45;0.00;99.90
54260;DHT22;40172;53.022;7.012;2022-12-11T14:55:23;0.00;99.90
54260;DHT22;40172;53.022;7.012;2022-12-11T14:57:53;0.20;99.90
54260;DHT22;40172;53.022;7.012;2022-12-11T15:02:57;0.00;99.90
54260;DHT22;40172;53.022;7.012;2022-12-11T15:05:23;0.10;99.90
54260;DHT22;40172;53.022;7.012;2022-12-11T15:07:58;0.30;99.90
54260;DHT22;40172;53.022;7.012;2022-12-11T15:10:53;0.10;99.90
54260;DHT22;40172;53.022;7.012;2022-12-11T15:13:22;0.10;99.90
54260;DHT22;40172;53.022;7.012;2022-12-11T15:15:48;0.00;99.90
54260;DHT22;40172;53.022;7.012;2022-12-11T15:18:29;0.00;99.90
54260;DHT22;40172;53.022;7.012;2022-12-11T15:21:02;-0.10;99.90
54260;DHT22;40172;53.022;7.012;2022-12-11T15:23:28;0.00;99.90
54260;DHT22;40172;53.022;7.012;2022-12-11T15:25:56;0.00;99.90
54260;DHT22;40172;53.022;7.012;2022-12-11T15:28:31;0.00;99.90
54260;DHT22;40172;53.022;7.012;2022-12-11T15:31:00;0.10;99.90
54260;DHT22;40172;53.022;7.012;2022-12-11T15:33:26;0.00;99.90
54260;DHT22;40172;53.022;7.012;2022-12-11T15:38:37;0.10;99.90
54260;DHT22;40172;53.022;7.012;2022-12-11T15:41:08;0.10;99.90
54260;DHT22;40172;53.022;7.012;2022-12-11T15:43:36;0.00;99.90
54260;DHT22;40172;53.022;7.012;2022-12-11T15:46:03;0.00;99.90
54260;DHT22;40172;53.022;7.012;2022-12-11T15:48:29;-0.10;99.90
54260;DHT22;40172;53.022;7.012;2022-12-11T15:50:55;-0.10;99.90
54260;DHT22;40172;53.022;7.012;2022-12-11T15:53:20;0.00;99.90
54260;DHT22;40172;53.022;7.012;2022-12-11T15:55:46;0.00;99.90
54260;DHT22;40172;53.022;7.012;2022-12-11T15:58:16;0.10;99.90
54260;DHT22;40172;53.022;7.012;2022-12-11T16:00:42;0.00;99.90
54260;DHT22;40172;53.022;7.012;2022-12-11T16:03:12;0.00;99.90
54260;DHT22;40172;53.022;7.012;2022-12-11T16:05:38;-0.40;99.90
54260;DHT22;40172;53.022;7.012;2022-12-11T16:08:04;0.10;99.90
54260;DHT22;40172;53.022;7.012;2022-12-11T16:10:30;-0.10;99.90
54260;DHT22;40172;53.022;7.012;2022-12-11T16:12:55;-0.10;99.90
54260;DHT22;40172;53.022;7.012;2022-12-11T16:15:24;-0.10;99.90
54260;DHT22;40172;53.022;7.012;2022-12-11T16:17:58;0.00;99.90
54260;DHT22;40172;53.022;7.012;2022-12-11T16:20:24;0.00;99.90
54260;DHT22;40172;53.022;7.012;2022-12-11T16:22:50;-0.10;99.90
54260;DHT22;40172;53.022;7.012;2022-12-11T16:25:15;-0.10;99.90
54260;DHT22;40172;53.022;7.012;2022-12-11T16:27:41;0.00;99.90
54260;DHT22;40172;53.022;7.012;2022-12-11T16:30:07;-0.10;99.90
54260;DHT22;40172;53.022;7.012;2022-12-11T16:32:34;0.00;99.90
54260;DHT22;40172;53.022;7.012;2022-12-11T16:35:00;-0.10;99.90
54260;DHT22;40172;53.022;7.012;2022-12-11T16:37:26;-0.10;99.90
54260;DHT22;40172;53.022;7.012;2022-12-11T16:39:51;0.00;99.90
54260;DHT22;40172;53.022;7.012;2022-12-11T16:42:17;-0.10;99.90
54260;DHT22;40172;53.022;7.012;2022-12-11T16:44:42;-0.10;99.90
54260;DHT22;40172;53.022;7.012;2022-12-11T16:47:08;0.00;99.90
54260;DHT22;40172;53.022;7.012;2022-12-11T16:49:33;0.00;99.90
54260;DHT22;40172;53.022;7.012;2022-12-11T16:51:59;0.00;99.90
54260;DHT22;40172;53.022;7.012;2022-12-11T16:54:25;0.00;99.90
54260;DHT22;40172;53.022;7.012;2022-12-11T16:56:50;0.00;99.90